Oak Run, California
Current Conditions -  °F | °C
As of 9:53 PM on Wednesday 17 Dec 2014 (Local Time) from KRDD Reporting Station
Light Rain Light Rain  
Wind Chill: 50°   Ceiling: 4400
Heat Index: 50°   Visibility: 8mi
Dew Point: 48°   Wind: 6mph
Humidity: 93%   Direction: 210°SSW
Pressure: 30.07"   Gusts: NA
Location:  40.69°N, 122.02°W
Report Text: KRDD 180553Z AUTO 21005KT 8SM -RA OVC044 10/09 A3007 RMK AO2 RAE0458B15 SLP181 P0002 60037 T01000089 10106 20100 52017 $
Loading
Personal Weather Stations






























Interactive Weather Map New forecast layout! Learn more

10-Day Weather Forecast

Advertisements
Track Severe Weather on mobile